sensor_id;sensor_type;location;lat;lon;timestamp;pressure;altitude;pressure_sealevel;temperature;humidity
59487;BME280;45298;54.918;73.504;2023-03-21T00:00:59;101196.81;;;-14.62;64.98
59487;BME280;45298;54.918;73.504;2023-03-21T00:03:32;101184.34;;;-14.72;65.04
59487;BME280;45298;54.918;73.504;2023-03-21T00:06:06;101200.69;;;-14.68;65.40
59487;BME280;45298;54.918;73.504;2023-03-21T00:08:37;101200.34;;;-14.75;65.68
59487;BME280;45298;54.918;73.504;2023-03-21T00:11:10;101205.44;;;-14.75;65.87
59487;BME280;45298;54.918;73.504;2023-03-21T00:13:42;101222.00;;;-14.66;65.72
59487;BME280;45298;54.918;73.504;2023-03-21T00:16:16;101209.22;;;-14.68;65.65
59487;BME280;45298;54.918;73.504;2023-03-21T00:19:05;101161.75;;;-14.96;65.05
59487;BME280;45298;54.918;73.504;2023-03-21T00:21:36;101229.41;;;-14.56;65.67
59487;BME280;45298;54.918;73.504;2023-03-21T00:24:25;101189.97;;;-14.78;64.99
59487;BME280;45298;54.918;73.504;2023-03-21T00:26:54;101174.69;;;-14.78;65.45
59487;BME280;45298;54.918;73.504;2023-03-21T00:29:42;101166.94;;;-14.64;65.57
59487;BME280;45298;54.918;73.504;2023-03-21T00:32:11;101181.88;;;-14.55;64.85
59487;BME280;45298;54.918;73.504;2023-03-21T00:34:40;101154.91;;;-14.67;65.32
59487;BME280;45298;54.918;73.504;2023-03-21T00:37:32;101220.47;;;-14.34;65.33
59487;BME280;45298;54.918;73.504;2023-03-21T00:40:02;101208.22;;;-14.40;65.13
59487;BME280;45298;54.918;73.504;2023-03-21T00:42:49;101211.56;;;-14.41;65.19
59487;BME280;45298;54.918;73.504;2023-03-21T00:45:18;101186.72;;;-14.60;65.46
59487;BME280;45298;54.918;73.504;2023-03-21T00:47:49;101181.53;;;-14.62;65.51
59487;BME280;45298;54.918;73.504;2023-03-21T00:50:17;101206.03;;;-14.49;66.03
59487;BME280;45298;54.918;73.504;2023-03-21T00:52:47;101171.84;;;-14.67;65.87
59487;BME280;45298;54.918;73.504;2023-03-21T00:55:17;101189.53;;;-14.55;65.88
59487;BME280;45298;54.918;73.504;2023-03-21T00:57:46;101189.97;;;-14.63;65.20
59487;BME280;45298;54.918;73.504;2023-03-21T01:00:26;101189.44;;;-14.72;65.38
59487;BME280;45298;54.918;73.504;2023-03-21T01:02:55;101173.66;;;-14.81;65.45
59487;BME280;45298;54.918;73.504;2023-03-21T01:05:37;101127.94;;;-15.08;65.88
59487;BME280;45298;54.918;73.504;2023-03-21T01:08:26;101205.72;;;-14.70;65.88
59487;BME280;45298;54.918;73.504;2023-03-21T01:11:11;101186.97;;;-14.85;65.67
59487;BME280;45298;54.918;73.504;2023-03-21T01:13:43;101237.38;;;-14.80;65.73
59487;BME280;45298;54.918;73.504;2023-03-21T01:16:23;101177.47;;;-15.03;66.11
59487;BME280;45298;54.918;73.504;2023-03-21T01:18:52;101086.47;;;-15.64;65.82
59487;BME280;45298;54.918;73.504;2023-03-21T01:21:21;101193.56;;;-15.17;65.56
59487;BME280;45298;54.918;73.504;2023-03-21T01:23:50;101186.53;;;-15.22;66.04
59487;BME280;45298;54.918;73.504;2023-03-21T01:26:19;101106.16;;;-15.75;65.97
59487;BME280;45298;54.918;73.504;2023-03-21T01:28:48;101165.84;;;-15.41;65.18
59487;BME280;45298;54.918;73.504;2023-03-21T01:31:17;101191.00;;;-15.46;65.35
59487;BME280;45298;54.918;73.504;2023-03-21T01:33:48;101142.25;;;-15.67;65.74
59487;BME280;45298;54.918;73.504;2023-03-21T01:36:19;101208.69;;;-15.34;65.30
59487;BME280;45298;54.918;73.504;2023-03-21T01:38:57;101110.03;;;-15.95;65.65
59487;BME280;45298;54.918;73.504;2023-03-21T01:41:31;101220.63;;;-15.33;65.55
59487;BME280;45298;54.918;73.504;2023-03-21T01:44:25;101165.50;;;-15.61;65.42
59487;BME280;45298;54.918;73.504;2023-03-21T01:46:54;101193.22;;;-15.37;65.73
59487;BME280;45298;54.918;73.504;2023-03-21T01:49:42;101228.38;;;-15.03;65.10
59487;BME280;45298;54.918;73.504;2023-03-21T01:52:23;101120.28;;;-15.52;65.92
59487;BME280;45298;54.918;73.504;2023-03-21T01:55:27;101188.38;;;-14.61;65.30
59487;BME280;45298;54.918;73.504;2023-03-21T01:58:00;101189.47;;;-12.83;63.93
59487;BME280;45298;54.918;73.504;2023-03-21T02:00:53;101213.59;;;-10.97;61.34
59487;BME280;45298;54.918;73.504;2023-03-21T02:03:34;101203.25;;;-9.74;59.55
59487;BME280;45298;54.918;73.504;2023-03-21T02:06:49;101191.88;;;-8.64;56.27
59487;BME280;45298;54.918;73.504;2023-03-21T02:09:34;101209.56;;;-7.96;55.59
59487;BME280;45298;54.918;73.504;2023-03-21T02:12:13;101204.72;;;-8.12;55.03
59487;BME280;45298;54.918;73.504;2023-03-21T02:14:46;101243.44;;;-8.09;55.05
59487;BME280;45298;54.918;73.504;2023-03-21T02:20:44;101233.25;;;-6.93;52.62
59487;BME280;45298;54.918;73.504;2023-03-21T02:24:02;101200.25;;;-6.43;51.79
59487;BME280;45298;54.918;73.504;2023-03-21T02:35:23;101203.50;;;-5.41;48.08
59487;BME280;45298;54.918;73.504;2023-03-21T02:38:03;101250.81;;;-5.46;48.99
59487;BME280;45298;54.918;73.504;2023-03-21T02:40:41;101230.56;;;-5.64;48.48
59487;BME280;45298;54.918;73.504;2023-03-21T02:46:00;101245.66;;;-6.16;48.78
59487;BME280;45298;54.918;73.504;2023-03-21T02:48:36;101257.03;;;-6.43;48.44
59487;BME280;45298;54.918;73.504;2023-03-21T02:51:20;101219.81;;;-6.83;49.22
59487;BME280;45298;54.918;73.504;2023-03-21T02:53:57;101247.59;;;-6.09;48.98
59487;BME280;45298;54.918;73.504;2023-03-21T02:56:48;101240.56;;;-5.78;47.44
59487;BME280;45298;54.918;73.504;2023-03-21T02:59:20;101214.34;;;-5.93;47.33
59487;BME280;45298;54.918;73.504;2023-03-21T03:01:51;101221.66;;;-6.12;46.49
59487;BME280;45298;54.918;73.504;2023-03-21T03:04:24;101256.09;;;-6.13;46.73
59487;BME280;45298;54.918;73.504;2023-03-21T03:07:30;101261.53;;;-6.66;47.71
59487;BME280;45298;54.918;73.504;2023-03-21T03:10:15;101254.00;;;-7.19;47.74
59487;BME280;45298;54.918;73.504;2023-03-21T03:15:40;101254.06;;;-8.00;48.90
59487;BME280;45298;54.918;73.504;2023-03-21T03:21:31;101259.94;;;-8.54;50.22
59487;BME280;45298;54.918;73.504;2023-03-21T03:26:46;101226.31;;;-9.07;51.01
59487;BME280;45298;54.918;73.504;2023-03-21T03:29:21;101159.06;;;-9.65;51.65
59487;BME280;45298;54.918;73.504;2023-03-21T03:32:04;101259.00;;;-9.28;51.42
59487;BME280;45298;54.918;73.504;2023-03-21T03:34:41;101250.56;;;-9.46;52.36
59487;BME280;45298;54.918;73.504;2023-03-21T03:37:13;101227.72;;;-9.61;51.53
59487;BME280;45298;54.918;73.504;2023-03-21T03:40:13;101241.84;;;-9.50;51.53
59487;BME280;45298;54.918;73.504;2023-03-21T03:42:53;101219.59;;;-9.72;52.09
59487;BME280;45298;54.918;73.504;2023-03-21T03:45:33;101243.69;;;-9.47;52.53
59487;BME280;45298;54.918;73.504;2023-03-21T03:48:14;101258.78;;;-9.09;52.29
59487;BME280;45298;54.918;73.504;2023-03-21T03:50:52;101164.91;;;-9.47;51.43
59487;BME280;45298;54.918;73.504;2023-03-21T03:53:33;101244.00;;;-8.92;51.05
59487;BME280;45298;54.918;73.504;2023-03-21T03:56:06;101258.50;;;-8.70;50.77
59487;BME280;45298;54.918;73.504;2023-03-21T03:58:38;101261.22;;;-8.41;50.99
59487;BME280;45298;54.918;73.504;2023-03-21T04:01:16;101229.69;;;-8.36;50.58
59487;BME280;45298;54.918;73.504;2023-03-21T04:03:46;101241.78;;;-8.07;50.92
59487;BME280;45298;54.918;73.504;2023-03-21T04:06:27;101221.09;;;-8.10;50.38
59487;BME280;45298;54.918;73.504;2023-03-21T04:08:56;101216.47;;;-7.95;50.89
59487;BME280;45298;54.918;73.504;2023-03-21T04:11:30;101223.84;;;-7.78;50.09
59487;BME280;45298;54.918;73.504;2023-03-21T04:13:59;101231.72;;;-7.46;50.70
59487;BME280;45298;54.918;73.504;2023-03-21T04:16:28;101228.16;;;-7.50;49.55
59487;BME280;45298;54.918;73.504;2023-03-21T04:19:03;101213.03;;;-7.39;49.78
59487;BME280;45298;54.918;73.504;2023-03-21T04:21:31;101206.81;;;-7.46;50.13
59487;BME280;45298;54.918;73.504;2023-03-21T04:24:01;101251.69;;;-7.10;49.54
59487;BME280;45298;54.918;73.504;2023-03-21T04:26:30;101252.06;;;-6.97;49.50
59487;BME280;45298;54.918;73.504;2023-03-21T04:29:19;101245.16;;;-6.99;50.01
59487;BME280;45298;54.918;73.504;2023-03-21T04:32:17;101215.50;;;-7.13;49.61
59487;BME280;45298;54.918;73.504;2023-03-21T04:34:55;101245.41;;;-6.89;50.20
59487;BME280;45298;54.918;73.504;2023-03-21T04:37:27;101222.09;;;-6.92;49.41
59487;BME280;45298;54.918;73.504;2023-03-21T04:39:56;101220.53;;;-6.87;50.26
59487;BME280;45298;54.918;73.504;2023-03-21T04:42:25;101159.34;;;-7.23;49.82
59487;BME280;45298;54.918;73.504;2023-03-21T04:44:54;101241.59;;;-6.72;49.37
59487;BME280;45298;54.918;73.504;2023-03-21T04:47:23;101223.13;;;-6.87;49.31
59487;BME280;45298;54.918;73.504;2023-03-21T04:49:54;101209.06;;;-6.99;49.22
59487;BME280;45298;54.918;73.504;2023-03-21T04:52:24;101254.28;;;-6.79;49.41
59487;BME280;45298;54.918;73.504;2023-03-21T04:54:53;101207.81;;;-7.11;49.78
59487;BME280;45298;54.918;73.504;2023-03-21T04:57:22;101235.69;;;-6.98;49.60
59487;BME280;45298;54.918;73.504;2023-03-21T04:59:51;101243.56;;;-6.93;49.29
59487;BME280;45298;54.918;73.504;2023-03-21T05:02:21;101217.00;;;-7.21;49.35
59487;BME280;45298;54.918;73.504;2023-03-21T05:04:50;101237.28;;;-7.03;49.91
59487;BME280;45298;54.918;73.504;2023-03-21T05:07:18;101220.94;;;-7.04;50.93
59487;BME280;45298;54.918;73.504;2023-03-21T05:09:54;101225.28;;;-6.71;49.25
59487;BME280;45298;54.918;73.504;2023-03-21T05:12:24;101159.38;;;-6.91;50.22
59487;BME280;45298;54.918;73.504;2023-03-21T05:14:53;101234.41;;;-6.19;49.95
59487;BME280;45298;54.918;73.504;2023-03-21T05:17:22;101215.09;;;-6.00;48.66
59487;BME280;45298;54.918;73.504;2023-03-21T05:19:51;101149.50;;;-6.05;47.99
59487;BME280;45298;54.918;73.504;2023-03-21T05:22:21;101204.25;;;-5.46;48.16
59487;BME280;45298;54.918;73.504;2023-03-21T05:24:52;101221.94;;;-5.26;48.41
59487;BME280;45298;54.918;73.504;2023-03-21T05:27:51;101216.22;;;-5.11;47.61
59487;BME280;45298;54.918;73.504;2023-03-21T05:30:26;101212.34;;;-4.89;47.99
59487;BME280;45298;54.918;73.504;2023-03-21T05:32:58;101229.31;;;-4.59;47.32
59487;BME280;45298;54.918;73.504;2023-03-21T05:35:28;101213.13;;;-4.48;46.83
59487;BME280;45298;54.918;73.504;2023-03-21T05:38:00;101194.44;;;-4.32;46.67
59487;BME280;45298;54.918;73.504;2023-03-21T05:40:33;101194.75;;;-4.13;46.60
59487;BME280;45298;54.918;73.504;2023-03-21T05:43:05;101179.66;;;-3.85;46.38
59487;BME280;45298;54.918;73.504;2023-03-21T05:45:34;101220.75;;;-3.53;45.69
59487;BME280;45298;54.918;73.504;2023-03-21T05:48:04;101174.81;;;-3.60;45.41
59487;BME280;45298;54.918;73.504;2023-03-21T05:50:43;101170.69;;;-3.47;45.95
59487;BME280;45298;54.918;73.504;2023-03-21T05:53:17;101163.22;;;-3.24;44.87
59487;BME280;45298;54.918;73.504;2023-03-21T05:55:49;101196.47;;;-2.92;44.97
59487;BME280;45298;54.918;73.504;2023-03-21T05:58:36;101196.78;;;-2.64;44.48
59487;BME280;45298;54.918;73.504;2023-03-21T06:01:05;101194.38;;;-2.49;43.98
59487;BME280;45298;54.918;73.504;2023-03-21T06:03:37;101182.41;;;-2.31;44.08
59487;BME280;45298;54.918;73.504;2023-03-21T06:06:12;101183.41;;;-2.17;43.65
59487;BME280;45298;54.918;73.504;2023-03-21T06:08:56;101146.03;;;-2.30;43.17
59487;BME280;45298;54.918;73.504;2023-03-21T06:11:28;101163.59;;;-2.02;42.95
59487;BME280;45298;54.918;73.504;2023-03-21T06:14:20;101180.31;;;-1.69;42.90
59487;BME280;45298;54.918;73.504;2023-03-21T06:17:09;101191.72;;;-1.47;42.04
59487;BME280;45298;54.918;73.504;2023-03-21T06:19:44;101167.47;;;-1.41;42.88
59487;BME280;45298;54.918;73.504;2023-03-21T06:22:30;101145.66;;;-1.62;42.19
59487;BME280;45298;54.918;73.504;2023-03-21T06:25:00;101166.63;;;-1.32;42.71
59487;BME280;45298;54.918;73.504;2023-03-21T06:27:32;101192.81;;;-1.00;42.75
59487;BME280;45298;54.918;73.504;2023-03-21T06:30:01;101202.47;;;-0.79;42.34
59487;BME280;45298;54.918;73.504;2023-03-21T06:32:35;101162.47;;;-0.99;41.96
59487;BME280;45298;54.918;73.504;2023-03-21T06:35:12;101199.06;;;-0.48;41.16
59487;BME280;45298;54.918;73.504;2023-03-21T06:37:42;101194.66;;;-0.65;42.25
59487;BME280;45298;54.918;73.504;2023-03-21T06:40:12;101201.66;;;-0.48;42.10
59487;BME280;45298;54.918;73.504;2023-03-21T06:42:41;101189.47;;;-0.65;41.71
59487;BME280;45298;54.918;73.504;2023-03-21T06:45:11;101110.25;;;-1.26;42.30
59487;BME280;45298;54.918;73.504;2023-03-21T06:47:41;101199.00;;;-0.76;42.38
59487;BME280;45298;54.918;73.504;2023-03-21T06:50:33;101199.00;;;-0.68;41.97
59487;BME280;45298;54.918;73.504;2023-03-21T06:53:02;101172.94;;;-0.71;41.89
59487;BME280;45298;54.918;73.504;2023-03-21T06:55:38;101155.56;;;-0.77;41.53
59487;BME280;45298;54.918;73.504;2023-03-21T06:58:07;101166.91;;;-0.69;41.79
59487;BME280;45298;54.918;73.504;2023-03-21T07:00:35;101195.59;;;-0.44;40.89
59487;BME280;45298;54.918;73.504;2023-03-21T07:03:05;101164.31;;;-0.47;40.76
59487;BME280;45298;54.918;73.504;2023-03-21T07:05:35;101164.31;;;-0.47;41.09
59487;BME280;45298;54.918;73.504;2023-03-21T07:08:06;101178.25;;;-0.25;40.43
59487;BME280;45298;54.918;73.504;2023-03-21T07:10:39;101173.88;;;-0.32;40.26
59487;BME280;45298;54.918;73.504;2023-03-21T07:13:12;101160.88;;;-0.26;40.37
59487;BME280;45298;54.918;73.504;2023-03-21T07:15:44;101182.59;;;-0.07;39.88
59487;BME280;45298;54.918;73.504;2023-03-21T07:18:13;101171.31;;;-0.04;39.54
59487;BME280;45298;54.918;73.504;2023-03-21T07:20:45;101051.34;;;-0.93;40.05
59487;BME280;45298;54.918;73.504;2023-03-21T07:23:20;101186.94;;;-0.24;40.94
59487;BME280;45298;54.918;73.504;2023-03-21T07:25:51;101193.03;;;-0.16;40.70
59487;BME280;45298;54.918;73.504;2023-03-21T07:28:20;101173.91;;;-0.06;40.38
59487;BME280;45298;54.918;73.504;2023-03-21T07:30:56;101185.22;;;0.04;40.24
59487;BME280;45298;54.918;73.504;2023-03-21T07:33:24;101190.44;;;0.21;40.87
59487;BME280;45298;54.918;73.504;2023-03-21T07:35:58;101171.31;;;0.14;40.18
59487;BME280;45298;54.918;73.504;2023-03-21T07:38:28;101154.75;;;0.11;40.58
59487;BME280;45298;54.918;73.504;2023-03-21T07:40:58;101174.75;;;0.23;40.28
59487;BME280;45298;54.918;73.504;2023-03-21T07:43:31;101177.41;;;0.03;40.09
59487;BME280;45298;54.918;73.504;2023-03-21T07:46:02;101161.72;;;-0.28;39.76
59487;BME280;45298;54.918;73.504;2023-03-21T07:48:31;101182.59;;;0.03;40.42
59487;BME280;45298;54.918;73.504;2023-03-21T07:51:00;101166.09;;;-0.01;40.71
59487;BME280;45298;54.918;73.504;2023-03-21T07:53:29;101173.03;;;0.20;40.23
59487;BME280;45298;54.918;73.504;2023-03-21T07:55:58;101148.69;;;0.09;39.78
59487;BME280;45298;54.918;73.504;2023-03-21T07:58:27;101172.16;;;0.07;40.01
59487;BME280;45298;54.918;73.504;2023-03-21T08:00:57;101167.81;;;0.12;39.66
59487;BME280;45298;54.918;73.504;2023-03-21T08:03:26;101152.19;;;0.00;39.66
59487;BME280;45298;54.918;73.504;2023-03-21T08:05:58;101158.25;;;0.16;39.34
59487;BME280;45298;54.918;73.504;2023-03-21T08:08:28;101159.97;;;0.14;39.58
59487;BME280;45298;54.918;73.504;2023-03-21T08:10:57;101136.50;;;0.12;39.61
59487;BME280;45298;54.918;73.504;2023-03-21T08:13:26;101175.63;;;0.45;39.60
59487;BME280;45298;54.918;73.504;2023-03-21T08:15:54;101174.69;;;0.55;38.91
59487;BME280;45298;54.918;73.504;2023-03-21T08:18:23;101149.41;;;0.70;38.67
59487;BME280;45298;54.918;73.504;2023-03-21T08:20:53;101098.22;;;0.28;39.17
59487;BME280;45298;54.918;73.504;2023-03-21T08:23:23;101168.66;;;0.44;39.48
59487;BME280;45298;54.918;73.504;2023-03-21T08:25:54;101165.22;;;-0.02;40.41
59487;BME280;45298;54.918;73.504;2023-03-21T08:28:23;101160.00;;;-0.20;40.91
59487;BME280;45298;54.918;73.504;2023-03-21T08:30:52;101174.78;;;-0.19;41.12
59487;BME280;45298;54.918;73.504;2023-03-21T08:33:21;101163.47;;;-0.24;41.22
59487;BME280;45298;54.918;73.504;2023-03-21T08:35:50;101140.00;;;-0.49;40.38
59487;BME280;45298;54.918;73.504;2023-03-21T08:38:18;101166.97;;;-0.21;40.96
59487;BME280;45298;54.918;73.504;2023-03-21T08:40:49;101164.34;;;-0.24;40.56
59487;BME280;45298;54.918;73.504;2023-03-21T08:43:17;101100.88;;;-0.63;40.30
59487;BME280;45298;54.918;73.504;2023-03-21T08:45:48;101146.09;;;-0.25;39.85
59487;BME280;45298;54.918;73.504;2023-03-21T08:48:17;101146.94;;;0.20;40.44
59487;BME280;45298;54.918;73.504;2023-03-21T08:50:46;101169.50;;;0.51;40.40
59487;BME280;45298;54.918;73.504;2023-03-21T08:53:15;101100.84;;;0.18;39.81
59487;BME280;45298;54.918;73.504;2023-03-21T08:55:44;101172.09;;;0.55;39.69
59487;BME280;45298;54.918;73.504;2023-03-21T08:58:13;101173.84;;;0.45;40.14
59487;BME280;45298;54.918;73.504;2023-03-21T09:00:41;101133.88;;;0.11;40.30
59487;BME280;45298;54.918;73.504;2023-03-21T09:03:10;101155.66;;;0.11;40.52
59487;BME280;45298;54.918;73.504;2023-03-21T09:05:39;101158.25;;;0.01;40.59
59487;BME280;45298;54.918;73.504;2023-03-21T09:08:08;101169.56;;;0.21;40.56
59487;BME280;45298;54.918;73.504;2023-03-21T09:10:37;101177.38;;;0.21;40.89
59487;BME280;45298;54.918;73.504;2023-03-21T09:13:06;101144.34;;;-0.16;41.21
59487;BME280;45298;54.918;73.504;2023-03-21T09:15:34;101160.00;;;-0.14;41.76
59487;BME280;45298;54.918;73.504;2023-03-21T09:18:04;101160.84;;;-0.24;41.97
59487;BME280;45298;54.918;73.504;2023-03-21T09:20:44;101184.31;;;-0.24;41.39
59487;BME280;45298;54.918;73.504;2023-03-21T09:23:14;101180.00;;;-0.27;41.97
59487;BME280;45298;54.918;73.504;2023-03-21T09:25:46;101146.09;;;-0.38;42.22
59487;BME280;45298;54.918;73.504;2023-03-21T09:28:17;101122.56;;;-0.77;42.40
59487;BME280;45298;54.918;73.504;2023-03-21T09:30:46;101154.66;;;-0.90;42.53
59487;BME280;45298;54.918;73.504;2023-03-21T09:33:15;101057.25;;;-1.56;42.63
59487;BME280;45298;54.918;73.504;2023-03-21T09:35:46;101159.00;;;-0.94;43.28
59487;BME280;45298;54.918;73.504;2023-03-21T09:38:18;101117.16;;;-1.35;43.27
59487;BME280;45298;54.918;73.504;2023-03-21T09:48:58;101143.22;;;-1.32;43.22
59487;BME280;45298;54.918;73.504;2023-03-21T09:51:34;101143.06;;;-1.60;43.39
59487;BME280;45298;54.918;73.504;2023-03-21T09:54:32;101167.38;;;-1.57;44.07
59487;BME280;45298;54.918;73.504;2023-03-21T09:59:47;101146.41;;;-1.82;44.35
59487;BME280;45298;54.918;73.504;2023-03-21T10:02:43;101169.78;;;-1.88;44.66
59487;BME280;45298;54.918;73.504;2023-03-21T10:05:20;101157.50;;;-2.07;44.98
59487;BME280;45298;54.918;73.504;2023-03-21T10:10:34;101106.94;;;-2.45;44.94
59487;BME280;45298;54.918;73.504;2023-03-21T10:13:20;101152.06;;;-2.35;45.75
59487;BME280;45298;54.918;73.504;2023-03-21T10:15:56;101152.88;;;-2.41;46.52
59487;BME280;45298;54.918;73.504;2023-03-21T10:18:28;101024.81;;;-3.23;46.14
59487;BME280;45298;54.918;73.504;2023-03-21T10:20:57;101151.78;;;-2.63;46.53
59487;BME280;45298;54.918;73.504;2023-03-21T10:23:27;101109.84;;;-3.00;46.35
59487;BME280;45298;54.918;73.504;2023-03-21T10:26:00;101163.75;;;-2.78;47.11
59487;BME280;45298;54.918;73.504;2023-03-21T10:28:32;101148.81;;;-2.97;47.34
59487;BME280;45298;54.918;73.504;2023-03-21T10:31:21;101132.31;;;-3.06;47.20
59487;BME280;45298;54.918;73.504;2023-03-21T10:33:53;101161.75;;;-3.00;47.52
59487;BME280;45298;54.918;73.504;2023-03-21T10:36:25;101139.03;;;-3.20;46.93
59487;BME280;45298;54.918;73.504;2023-03-21T10:41:29;101152.91;;;-3.18;47.32
59487;BME280;45298;54.918;73.504;2023-03-21T10:44:07;101139.00;;;-3.23;48.05
59487;BME280;45298;54.918;73.504;2023-03-21T10:46:37;101131.91;;;-3.37;47.78
59487;BME280;45298;54.918;73.504;2023-03-21T10:49:06;101170.13;;;-3.23;48.05
59487;BME280;45298;54.918;73.504;2023-03-21T10:51:36;101158.00;;;-3.27;47.92
59487;BME280;45298;54.918;73.504;2023-03-21T10:54:11;101118.59;;;-3.63;47.85
59487;BME280;45298;54.918;73.504;2023-03-21T10:56:46;101163.78;;;-3.45;47.63
59487;BME280;45298;54.918;73.504;2023-03-21T10:59:19;101130.66;;;-3.65;47.98
59487;BME280;45298;54.918;73.504;2023-03-21T11:01:51;101148.97;;;-3.56;48.30
59487;BME280;45298;54.918;73.504;2023-03-21T11:04:26;101157.50;;;-3.65;47.96
59487;BME280;45298;54.918;73.504;2023-03-21T11:06:58;101164.44;;;-3.60;48.46
59487;BME280;45298;54.918;73.504;2023-03-21T11:09:48;101086.88;;;-4.08;48.47
59487;BME280;45298;54.918;73.504;2023-03-21T11:12:40;101151.31;;;-3.74;48.51
59487;BME280;45298;54.918;73.504;2023-03-21T11:18:38;101143.25;;;-3.91;49.31
59487;BME280;45298;54.918;73.504;2023-03-21T11:21:12;101133.44;;;-4.13;48.68
59487;BME280;45298;54.918;73.504;2023-03-21T11:23:47;101151.53;;;-4.14;48.91
59487;BME280;45298;54.918;73.504;2023-03-21T11:26:26;101120.88;;;-4.40;48.65
59487;BME280;45298;54.918;73.504;2023-03-21T11:28:56;101128.56;;;-4.46;47.96
59487;BME280;45298;54.918;73.504;2023-03-21T11:31:38;101116.25;;;-4.60;49.23
59487;BME280;45298;54.918;73.504;2023-03-21T11:34:19;101118.56;;;-4.75;49.07
59487;BME280;45298;54.918;73.504;2023-03-21T11:36:51;101143.72;;;-4.68;48.85
59487;BME280;45298;54.918;73.504;2023-03-21T11:39:36;101124.44;;;-4.86;49.34
59487;BME280;45298;54.918;73.504;2023-03-21T11:42:25;101129.66;;;-4.82;49.43
59487;BME280;45298;54.918;73.504;2023-03-21T11:45:14;101167.94;;;-4.66;49.08
59487;BME280;45298;54.918;73.504;2023-03-21T11:47:44;101032.72;;;-5.46;49.39
59487;BME280;45298;54.918;73.504;2023-03-21T11:53:58;101162.34;;;-4.88;50.20
59487;BME280;45298;54.918;73.504;2023-03-21T12:01:36;101159.25;;;-5.12;50.11
59487;BME280;45298;54.918;73.504;2023-03-21T12:04:34;101147.16;;;-5.15;50.42
59487;BME280;45298;54.918;73.504;2023-03-21T12:13:00;101152.81;;;-5.33;52.13
59487;BME280;45298;54.918;73.504;2023-03-21T12:21:33;101143.66;;;-5.57;52.63
59487;BME280;45298;54.918;73.504;2023-03-21T12:26:54;101132.94;;;-5.76;52.89
59487;BME280;45298;54.918;73.504;2023-03-21T12:29:52;101122.09;;;-5.97;53.20
59487;BME280;45298;54.918;73.504;2023-03-21T12:32:26;101137.66;;;-5.96;52.57
59487;BME280;45298;54.918;73.504;2023-03-21T12:37:52;101145.50;;;-6.29;53.02
59487;BME280;45298;54.918;73.504;2023-03-21T12:43:53;101132.88;;;-6.52;54.25
59487;BME280;45298;54.918;73.504;2023-03-21T12:46:23;101129.19;;;-6.62;54.19
59487;BME280;45298;54.918;73.504;2023-03-21T12:49:14;101124.63;;;-6.72;53.79
59487;BME280;45298;54.918;73.504;2023-03-21T12:51:50;101016.25;;;-7.41;53.96
59487;BME280;45298;54.918;73.504;2023-03-21T12:57:10;101115.13;;;-7.05;54.51
59487;BME280;45298;54.918;73.504;2023-03-21T12:59:59;101119.25;;;-7.12;55.53
59487;BME280;45298;54.918;73.504;2023-03-21T13:02:41;101076.38;;;-7.40;54.75
59487;BME280;45298;54.918;73.504;2023-03-21T13:08:27;101087.72;;;-7.64;55.55
59487;BME280;45298;54.918;73.504;2023-03-21T13:10:59;100993.22;;;-8.26;56.10
59487;BME280;45298;54.918;73.504;2023-03-21T13:16:36;101092.94;;;-7.92;56.44
59487;BME280;45298;54.918;73.504;2023-03-21T13:19:53;101099.81;;;-7.91;56.71
59487;BME280;45298;54.918;73.504;2023-03-21T13:22:29;101087.41;;;-8.04;56.25
59487;BME280;45298;54.918;73.504;2023-03-21T13:25:03;101101.31;;;-7.99;56.78
59487;BME280;45298;54.918;73.504;2023-03-21T13:27:35;101074.00;;;-8.21;56.18
59487;BME280;45298;54.918;73.504;2023-03-21T13:30:27;101085.19;;;-8.21;56.83
59487;BME280;45298;54.918;73.504;2023-03-21T13:35:38;101076.69;;;-8.45;57.27
59487;BME280;45298;54.918;73.504;2023-03-21T13:38:14;101068.03;;;-8.47;57.56
59487;BME280;45298;54.918;73.504;2023-03-21T13:51:52;101029.94;;;-8.87;58.08
59487;BME280;45298;54.918;73.504;2023-03-21T13:54:26;101089.19;;;-8.58;57.81
59487;BME280;45298;54.918;73.504;2023-03-21T13:56:58;101084.66;;;-8.65;57.80
59487;BME280;45298;54.918;73.504;2023-03-21T13:59:36;101079.50;;;-8.65;58.12
59487;BME280;45298;54.918;73.504;2023-03-21T14:04:43;101083.44;;;-8.76;58.28
59487;BME280;45298;54.918;73.504;2023-03-21T14:07:43;101080.75;;;-8.79;59.21
59487;BME280;45298;54.918;73.504;2023-03-21T14:10:21;101052.78;;;-8.96;58.73
59487;BME280;45298;54.918;73.504;2023-03-21T14:12:52;101053.38;;;-9.03;58.15
59487;BME280;45298;54.918;73.504;2023-03-21T14:15:48;101063.56;;;-9.06;59.17
59487;BME280;45298;54.918;73.504;2023-03-21T14:18:25;101075.47;;;-9.08;58.73
59487;BME280;45298;54.918;73.504;2023-03-21T14:21:19;101071.97;;;-9.11;59.91
59487;BME280;45298;54.918;73.504;2023-03-21T14:26:33;101048.84;;;-9.36;59.82
59487;BME280;45298;54.918;73.504;2023-03-21T14:29:04;101050.69;;;-9.32;59.47
59487;BME280;45298;54.918;73.504;2023-03-21T14:31:54;101059.16;;;-9.35;59.77
59487;BME280;45298;54.918;73.504;2023-03-21T14:34:28;101086.97;;;-9.23;59.53
59487;BME280;45298;54.918;73.504;2023-03-21T14:36:59;101057.13;;;-9.44;60.28
59487;BME280;45298;54.918;73.504;2023-03-21T14:39:30;101065.53;;;-9.48;60.11
59487;BME280;45298;54.918;73.504;2023-03-21T14:42:08;101056.59;;;-9.59;60.86
59487;BME280;45298;54.918;73.504;2023-03-21T14:44:39;101042.47;;;-9.71;60.83
59487;BME280;45298;54.918;73.504;2023-03-21T14:47:25;101081.06;;;-9.45;60.46
59487;BME280;45298;54.918;73.504;2023-03-21T14:49:56;101039.25;;;-9.65;60.42
59487;BME280;45298;54.918;73.504;2023-03-21T14:52:29;101068.19;;;-9.46;60.55
59487;BME280;45298;54.918;73.504;2023-03-21T14:55:10;101022.56;;;-9.76;61.15
59487;BME280;45298;54.918;73.504;2023-03-21T14:57:41;101073.47;;;-9.42;60.69
59487;BME280;45298;54.918;73.504;2023-03-21T15:00:18;101051.84;;;-9.48;61.13
59487;BME280;45298;54.918;73.504;2023-03-21T15:02:50;101052.00;;;-9.44;60.88